createdAt,value
2017-11-07T00:01:42.095Z,4.33
2017-11-07T00:04:10.922Z,4.27
2017-11-07T00:06:39.814Z,4.20
2017-11-07T00:09:08.665Z,4.60
2017-11-07T00:11:37.498Z,4.30
2017-11-07T00:14:06.434Z,4.50
2017-11-07T00:16:35.316Z,4.50
2017-11-07T00:19:04.138Z,4.50
2017-11-07T00:21:33.186Z,3.97
2017-11-07T00:24:02.162Z,4.40
2017-11-07T00:26:30.983Z,4.73
2017-11-07T00:28:59.806Z,4.17
2017-11-07T00:31:29.405Z,4.20
2017-11-07T00:33:59.080Z,3.90
2017-11-07T00:36:28.642Z,4.47
2017-11-07T00:38:58.217Z,4.90
2017-11-07T00:41:27.258Z,4.83
2017-11-07T00:43:56.073Z,5.00
2017-11-07T00:46:25.007Z,5.10
2017-11-07T00:48:53.960Z,4.30
2017-11-07T00:51:22.784Z,4.93
2017-11-07T00:53:51.615Z,4.57
2017-11-07T00:56:20.447Z,4.50
2017-11-07T00:58:49.267Z,4.87
2017-11-07T01:01:19.111Z,5.37
2017-11-07T01:03:48.015Z,4.77
2017-11-07T01:06:17.123Z,4.90
2017-11-07T01:08:46.019Z,4.60
2017-11-07T01:11:14.851Z,5.03
2017-11-07T01:13:43.712Z,4.70
2017-11-07T01:16:12.546Z,4.90
2017-11-07T01:18:41.370Z,5.13
2017-11-07T01:21:10.199Z,4.47
2017-11-07T01:23:39.138Z,4.90
2017-11-07T01:26:07.964Z,5.07
2017-11-07T01:28:36.790Z,5.43
2017-11-07T01:31:05.626Z,5.33
2017-11-07T01:33:34.463Z,5.17
2017-11-07T01:36:03.742Z,4.50
2017-11-07T01:38:32.595Z,4.67
2017-11-07T01:41:01.490Z,5.90
2017-11-07T01:43:30.990Z,4.50
2017-11-07T01:46:00.570Z,4.80
2017-11-07T01:48:30.216Z,4.47
2017-11-07T01:50:59.803Z,4.70
2017-11-07T01:53:29.442Z,4.77
2017-11-07T01:55:58.289Z,5.17
2017-11-07T01:58:27.128Z,5.10
2017-11-07T02:00:55.950Z,5.10
2017-11-07T02:03:24.773Z,5.20
2017-11-07T02:05:53.606Z,5.90
2017-11-07T02:08:22.501Z,5.43
2017-11-07T02:10:51.320Z,5.03
2017-11-07T02:13:20.149Z,5.40
2017-11-07T02:15:49.049Z,5.30
2017-11-07T02:18:17.875Z,6.53
2017-11-07T02:20:46.713Z,5.73
2017-11-07T02:23:15.551Z,6.23
2017-11-07T02:25:44.378Z,6.53
2017-11-07T02:28:13.274Z,6.80
2017-11-07T02:30:42.099Z,6.23
2017-11-07T02:33:11.891Z,5.70
2017-11-07T02:35:40.876Z,5.57
2017-11-07T02:38:09.694Z,5.90
2017-11-07T02:40:39.302Z,6.67
2017-11-07T02:43:08.213Z,5.83
2017-11-07T02:45:37.299Z,6.33
2017-11-07T02:48:06.190Z,5.10
2017-11-07T02:50:35.026Z,5.17
2017-11-07T02:53:03.854Z,4.87
2017-11-07T02:55:32.676Z,5.97
2017-11-07T02:58:02.326Z,5.43
2017-11-07T03:00:31.897Z,5.03
2017-11-07T03:03:01.468Z,5.57
2017-11-07T03:05:31.042Z,5.50
2017-11-07T03:08:00.605Z,5.27
2017-11-07T03:10:29.434Z,4.67
2017-11-07T03:12:58.343Z,4.27
2017-11-07T03:15:27.173Z,4.33
2017-11-07T03:17:55.993Z,4.30
2017-11-07T03:20:24.827Z,4.03
2017-11-07T03:22:53.681Z,3.90
2017-11-07T03:25:22.599Z,3.90
2017-11-07T03:27:51.487Z,4.43
2017-11-07T03:30:20.312Z,4.70
2017-11-07T03:32:49.139Z,3.60
2017-11-07T03:35:18.051Z,3.67
2017-11-07T03:37:46.889Z,3.40
2017-11-07T03:40:15.706Z,3.73
2017-11-07T03:42:44.546Z,3.63
2017-11-07T03:45:13.411Z,3.50
2017-11-07T03:47:42.234Z,3.07
2017-11-07T03:50:11.078Z,3.27
2017-11-07T03:52:40.105Z,3.60
2017-11-07T03:55:08.980Z,3.30
2017-11-07T03:57:37.823Z,3.23
2017-11-07T04:00:06.659Z,3.50
2017-11-07T04:02:35.496Z,3.00
2017-11-07T04:05:04.368Z,3.30
2017-11-07T04:07:33.782Z,2.73
2017-11-07T04:10:03.683Z,3.53
2017-11-07T04:12:33.951Z,3.47
2017-11-07T04:15:03.505Z,3.50
2017-11-07T04:17:33.195Z,3.47
2017-11-07T04:20:02.779Z,3.80
2017-11-07T04:22:32.351Z,4.43
2017-11-07T04:25:01.171Z,3.70
2017-11-07T04:27:30.008Z,13.40
2017-11-07T04:29:58.844Z,11.70
2017-11-07T04:32:27.774Z,4.90
2017-11-07T04:34:56.612Z,4.47
2017-11-07T04:37:25.769Z,4.83
2017-11-07T04:39:54.595Z,5.10
2017-11-07T04:42:23.432Z,4.20
2017-11-07T04:44:52.336Z,7.40
2017-11-07T04:47:21.162Z,5.37
2017-11-07T04:49:50.000Z,5.37
2017-11-07T04:52:18.822Z,4.73
2017-11-07T04:54:47.655Z,4.43
2017-11-07T04:57:16.577Z,4.97
2017-11-07T04:59:45.509Z,5.17
2017-11-07T05:02:14.372Z,6.50
2017-11-07T05:04:43.207Z,6.00
2017-11-07T05:07:12.024Z,5.57
2017-11-07T05:09:40.847Z,5.60
2017-11-07T05:12:09.747Z,6.00
2017-11-07T05:14:38.897Z,6.90
2017-11-07T05:17:07.842Z,6.00
2017-11-07T05:19:36.794Z,6.00
2017-11-07T05:22:05.615Z,6.80
2017-11-07T05:24:35.434Z,6.43
2017-11-07T05:27:05.006Z,6.60
2017-11-07T05:29:34.577Z,6.40
2017-11-07T05:32:04.173Z,6.27
2017-11-07T05:34:33.006Z,5.50
2017-11-07T05:37:01.842Z,5.23
2017-11-07T05:39:30.662Z,5.40
2017-11-07T05:41:59.496Z,6.00
2017-11-07T05:44:28.313Z,5.70
2017-11-07T05:46:57.166Z,5.47
2017-11-07T05:49:26.012Z,5.00
2017-11-07T05:51:54.836Z,5.87
2017-11-07T05:54:23.657Z,5.27
2017-11-07T05:56:52.522Z,6.07
2017-11-07T05:59:21.364Z,6.03
2017-11-07T06:01:50.183Z,5.27
2017-11-07T06:04:19.017Z,6.10
2017-11-07T06:06:47.892Z,5.63
2017-11-07T06:09:17.105Z,5.07
2017-11-07T06:11:45.941Z,5.60
2017-11-07T06:14:14.871Z,5.70
2017-11-07T06:16:43.696Z,5.30
2017-11-07T06:19:12.535Z,5.87
2017-11-07T06:21:41.358Z,5.40
2017-11-07T06:24:10.175Z,5.40
2017-11-07T06:26:39.026Z,6.10
2017-11-07T06:29:07.875Z,5.17
2017-11-07T06:31:37.434Z,5.80
2017-11-07T06:34:07.019Z,5.73
2017-11-07T06:36:36.895Z,5.53
2017-11-07T06:39:06.475Z,6.77
2017-11-07T06:41:36.045Z,5.83
2017-11-07T06:44:04.889Z,6.20
2017-11-07T06:46:33.712Z,5.23
2017-11-07T06:49:02.553Z,5.23
2017-11-07T06:51:31.406Z,6.20
2017-11-07T06:54:00.240Z,5.97
2017-11-07T06:56:29.079Z,6.50
2017-11-07T06:58:57.909Z,6.10
2017-11-07T07:01:26.735Z,5.43
2017-11-07T07:03:55.603Z,6.00
2017-11-07T07:06:24.553Z,8.53
2017-11-07T07:08:53.436Z,5.97
2017-11-07T07:11:22.285Z,6.00
2017-11-07T07:13:51.223Z,6.47
2017-11-07T07:16:20.051Z,6.20
2017-11-07T07:18:48.883Z,6.20
2017-11-07T07:21:17.710Z,7.30
2017-11-07T07:23:46.535Z,6.27
2017-11-07T07:26:15.383Z,6.80
2017-11-07T07:28:44.305Z,6.33
2017-11-07T07:31:13.147Z,6.90
2017-11-07T07:33:41.986Z,5.63
2017-11-07T07:36:10.811Z,5.87
2017-11-07T07:38:39.717Z,6.97
2017-11-07T07:41:09.330Z,6.57
2017-11-07T07:43:38.898Z,6.23
2017-11-07T07:46:08.464Z,6.93
2017-11-07T07:48:38.046Z,6.60
2017-11-07T07:51:06.870Z,7.77
2017-11-07T07:53:35.686Z,6.10
2017-11-07T07:56:04.518Z,7.33
2017-11-07T07:58:33.376Z,6.53
2017-11-07T08:01:02.204Z,7.17
2017-11-07T08:03:31.046Z,7.47
2017-11-07T08:05:59.881Z,7.53
2017-11-07T08:08:28.713Z,7.33
2017-11-07T08:10:57.555Z,6.97
2017-11-07T08:13:26.387Z,6.60
2017-11-07T08:15:55.219Z,7.07
2017-11-07T08:18:24.257Z,7.33
2017-11-07T08:20:53.079Z,7.30
2017-11-07T08:23:21.912Z,6.43
2017-11-07T08:25:50.751Z,7.97
2017-11-07T08:28:19.571Z,7.10
2017-11-07T08:30:48.397Z,8.57
2017-11-07T08:33:17.235Z,8.60
2017-11-07T08:35:46.055Z,7.97
2017-11-07T08:38:14.999Z,8.33
2017-11-07T08:40:43.833Z,8.37
2017-11-07T08:43:12.660Z,7.50
2017-11-07T08:45:41.782Z,7.30
2017-11-07T08:48:11.367Z,8.33
2017-11-07T08:50:40.939Z,7.93
2017-11-07T08:53:10.553Z,8.37
2017-11-07T08:55:40.140Z,8.00
2017-11-07T08:58:08.971Z,8.87
2017-11-07T09:00:37.814Z,8.73
2017-11-07T09:03:06.664Z,10.17
2017-11-07T09:05:35.498Z,8.20
2017-11-07T09:08:04.343Z,8.87
2017-11-07T09:10:33.178Z,10.33
2017-11-07T09:13:02.096Z,9.90
2017-11-07T09:15:30.923Z,8.90
2017-11-07T09:17:59.791Z,9.70
2017-11-07T09:20:28.609Z,10.77
2017-11-07T09:22:57.483Z,10.90
2017-11-07T09:25:26.317Z,9.77
2017-11-07T09:27:55.243Z,10.07
2017-11-07T09:30:24.078Z,10.23
2017-11-07T09:32:52.957Z,8.60
2017-11-07T09:35:21.791Z,10.57
2017-11-07T09:37:50.619Z,10.77
2017-11-07T09:40:19.459Z,8.97
2017-11-07T09:42:48.311Z,10.57
2017-11-07T09:45:17.159Z,10.13
2017-11-07T09:47:46.010Z,10.50
2017-11-07T09:50:14.847Z,9.83
2017-11-07T09:52:44.418Z,10.07
2017-11-07T09:55:14.061Z,10.53
2017-11-07T09:57:43.696Z,11.17
2017-11-07T10:00:13.373Z,11.33
2017-11-07T10:05:35.222Z,10.27
2017-11-07T10:08:04.084Z,11.57
2017-11-07T10:10:33.146Z,11.50
2017-11-07T10:13:01.979Z,11.30
2017-11-07T10:15:30.826Z,11.53
2017-11-07T10:17:59.654Z,12.20
2017-11-07T10:20:28.487Z,11.57
2017-11-07T10:22:57.680Z,12.67
2017-11-07T10:25:26.571Z,13.87
2017-11-07T10:27:55.409Z,13.50
2017-11-07T10:30:24.292Z,13.73
2017-11-07T10:32:53.189Z,12.67
2017-11-07T10:35:22.030Z,12.43
2017-11-07T10:37:51.379Z,13.13
2017-11-07T10:40:20.239Z,13.80
2017-11-07T10:42:49.067Z,12.90
2017-11-07T10:45:17.915Z,12.90
2017-11-07T10:47:46.743Z,13.80
2017-11-07T10:50:16.318Z,15.67
2017-11-07T10:52:45.906Z,13.90
2017-11-07T10:55:15.478Z,15.03
2017-11-07T10:57:44.310Z,13.30
2017-11-07T11:00:13.158Z,15.40
2017-11-07T11:02:41.986Z,15.07
2017-11-07T11:05:10.814Z,15.30
2017-11-07T11:07:39.702Z,14.67
2017-11-07T11:10:08.534Z,15.40
2017-11-07T11:12:37.366Z,14.40
2017-11-07T11:15:06.242Z,15.40
2017-11-07T11:17:35.791Z,14.83
2017-11-07T11:20:04.625Z,15.27
2017-11-07T11:22:33.826Z,16.00
2017-11-07T11:25:02.664Z,14.33
2017-11-07T11:27:31.507Z,14.17
2017-11-07T11:30:00.382Z,16.17
2017-11-07T11:32:29.219Z,14.57
2017-11-07T11:34:58.061Z,13.83
2017-11-07T11:37:26.906Z,13.07
2017-11-07T11:39:55.747Z,12.60
2017-11-07T11:42:24.584Z,12.90
2017-11-07T11:44:53.423Z,12.17
2017-11-07T11:47:22.319Z,13.53
2017-11-07T11:49:51.155Z,13.20
2017-11-07T11:52:20.057Z,13.73
2017-11-07T11:54:49.736Z,13.47
2017-11-07T11:57:19.318Z,13.47
2017-11-07T11:59:48.910Z,12.83
2017-11-07T12:02:18.482Z,13.43
2017-11-07T12:04:47.315Z,12.70
2017-11-07T12:07:16.171Z,12.23
2017-11-07T12:09:45.012Z,13.03
2017-11-07T12:12:13.838Z,13.50
2017-11-07T12:14:42.704Z,12.80
2017-11-07T12:17:11.542Z,12.47
2017-11-07T12:19:40.388Z,12.67
2017-11-07T12:22:09.232Z,12.60
2017-11-07T12:24:38.068Z,12.97
2017-11-07T12:27:06.885Z,12.93
2017-11-07T12:29:35.739Z,11.73
2017-11-07T12:32:04.569Z,13.57
2017-11-07T12:34:33.389Z,12.07
2017-11-07T12:37:02.238Z,13.40
2017-11-07T12:39:31.075Z,13.13
2017-11-07T12:41:59.902Z,13.60
2017-11-07T12:44:28.759Z,13.87
2017-11-07T12:46:57.602Z,13.37
2017-11-07T12:49:26.443Z,13.63
2017-11-07T12:51:59.245Z,12.57
2017-11-07T12:54:28.084Z,13.47
2017-11-07T12:56:56.917Z,12.20
2017-11-07T12:59:25.806Z,14.60
2017-11-07T13:01:54.638Z,13.43
2017-11-07T13:04:23.496Z,15.10
2017-11-07T13:06:53.086Z,13.77
2017-11-07T13:09:22.700Z,12.90
2017-11-07T13:11:52.294Z,13.00
2017-11-07T13:14:22.026Z,14.37
2017-11-07T13:16:51.610Z,12.90
2017-11-07T13:19:20.441Z,11.27
2017-11-07T13:21:49.291Z,11.50
2017-11-07T13:24:18.148Z,12.27
2017-11-07T13:26:46.985Z,12.77
2017-11-07T13:29:15.824Z,13.57
2017-11-07T13:31:44.666Z,13.93
2017-11-07T13:36:48.995Z,13.87
2017-11-07T13:39:17.839Z,14.37
2017-11-07T13:41:46.672Z,13.90
2017-11-07T13:44:15.519Z,17.30
2017-11-07T13:46:44.382Z,13.30
2017-11-07T13:49:13.223Z,14.97
2017-11-07T13:51:42.079Z,14.50
2017-11-07T13:54:11.164Z,13.90
2017-11-07T13:56:40.018Z,14.17
2017-11-07T13:59:08.858Z,14.07
2017-11-07T14:01:37.699Z,13.20
2017-11-07T14:04:06.602Z,14.70
2017-11-07T14:06:35.456Z,13.70
2017-11-07T14:09:04.298Z,15.13
2017-11-07T14:11:33.130Z,14.30
2017-11-07T14:14:01.984Z,14.87
2017-11-07T14:16:30.815Z,16.83
2017-11-07T14:18:59.654Z,15.97
2017-11-07T14:21:28.515Z,16.17
2017-11-07T14:23:57.418Z,13.80
2017-11-07T14:26:26.258Z,13.97
2017-11-07T14:28:55.098Z,15.00
2017-11-07T14:31:23.959Z,15.90
2017-11-07T14:33:53.599Z,13.50
2017-11-07T14:36:23.378Z,14.03
2017-11-07T14:38:53.018Z,15.30
2017-11-07T14:41:22.594Z,15.73
2017-11-07T14:43:52.224Z,15.20
2017-11-07T14:46:21.803Z,18.90
2017-11-07T14:48:50.637Z,16.30
2017-11-07T14:51:19.558Z,16.60
2017-11-07T14:53:48.430Z,16.00
2017-11-07T14:56:17.326Z,15.67
2017-11-07T14:58:46.181Z,17.60
2017-11-07T15:01:15.010Z,15.77
2017-11-07T15:03:43.843Z,16.70
2017-11-07T15:06:12.771Z,15.43
2017-11-07T15:08:41.608Z,16.27
2017-11-07T15:11:10.442Z,14.93
2017-11-07T15:13:39.281Z,16.13
2017-11-07T15:16:08.120Z,15.37
2017-11-07T15:18:37.012Z,16.93
2017-11-07T15:21:05.944Z,18.33
2017-11-07T15:23:34.823Z,16.07
2017-11-07T15:26:03.649Z,18.13
2017-11-07T15:28:32.494Z,18.33
2017-11-07T15:31:01.328Z,16.67
2017-11-07T15:33:30.164Z,17.73
2017-11-07T15:35:59.014Z,19.73
2017-11-07T15:38:27.851Z,18.00
2017-11-07T15:40:56.716Z,17.80
2017-11-07T15:43:25.607Z,22.07
2017-11-07T15:45:54.494Z,18.93
2017-11-07T15:48:23.751Z,17.63
2017-11-07T15:50:53.410Z,17.07
2017-11-07T15:53:23.009Z,16.53
2017-11-07T15:55:52.613Z,17.70
2017-11-07T15:58:22.197Z,16.20
2017-11-07T16:00:51.157Z,18.53
2017-11-07T16:03:20.007Z,16.93
2017-11-07T16:05:48.927Z,15.40
2017-11-07T16:08:17.761Z,15.40
2017-11-07T16:10:46.590Z,15.73
2017-11-07T16:13:15.438Z,16.70
2017-11-07T16:15:44.275Z,15.80
2017-11-07T16:18:13.106Z,15.00
2017-11-07T16:20:41.950Z,16.40
2017-11-07T16:23:10.780Z,16.80
2017-11-07T16:25:39.633Z,15.40
2017-11-07T16:28:08.479Z,18.10
2017-11-07T16:30:37.655Z,18.67
2017-11-07T16:33:06.478Z,17.77
2017-11-07T16:35:35.331Z,19.33
2017-11-07T16:38:04.154Z,16.83
2017-11-07T16:40:32.988Z,17.73
2017-11-07T16:43:01.833Z,15.70
2017-11-07T16:45:30.663Z,16.90
2017-11-07T16:47:59.496Z,16.90
2017-11-07T16:50:28.553Z,16.77
2017-11-07T16:52:57.386Z,16.67
2017-11-07T16:55:26.223Z,18.10
2017-11-07T16:57:55.103Z,16.90
2017-11-07T17:00:24.151Z,16.97
2017-11-07T17:02:53.743Z,18.70
2017-11-07T17:05:23.344Z,17.30
2017-11-07T17:07:52.915Z,19.00
2017-11-07T17:10:22.535Z,26.50
2017-11-07T17:12:52.199Z,31.10
2017-11-07T17:15:21.052Z,22.70
2017-11-07T17:17:50.163Z,20.40
2017-11-07T17:20:18.999Z,18.90
2017-11-07T17:22:47.907Z,25.20
2017-11-07T17:25:16.738Z,27.67
2017-11-07T17:27:45.835Z,27.87
2017-11-07T17:30:14.662Z,23.47
2017-11-07T17:32:43.492Z,24.13
2017-11-07T17:35:12.334Z,20.80
2017-11-07T17:37:41.167Z,21.77
2017-11-07T17:40:10.015Z,21.93
2017-11-07T17:42:38.890Z,21.93
2017-11-07T17:45:07.713Z,22.30
2017-11-07T17:47:36.623Z,21.93
2017-11-07T17:50:05.479Z,23.90
2017-11-07T17:52:34.323Z,21.30
2017-11-07T17:55:03.164Z,30.30
2017-11-07T17:57:32.010Z,26.00
2017-11-07T18:00:00.853Z,22.87
2017-11-07T18:02:29.855Z,49.07
2017-11-07T18:04:58.995Z,34.37
2017-11-07T18:07:27.815Z,24.30
2017-11-07T18:09:56.643Z,24.20
2017-11-07T18:12:25.483Z,24.70
2017-11-07T18:14:54.685Z,23.50
2017-11-07T18:17:24.323Z,24.97
2017-11-07T18:19:53.913Z,26.83
2017-11-07T18:22:23.512Z,24.80
2017-11-07T18:24:53.160Z,24.07
2017-11-07T18:27:21.999Z,25.50
2017-11-07T18:29:50.971Z,23.80
2017-11-07T18:32:19.910Z,26.17
2017-11-07T18:34:48.940Z,24.23
2017-11-07T18:37:17.784Z,25.10
2017-11-07T18:39:46.660Z,27.40
2017-11-07T18:42:15.596Z,25.63
2017-11-07T18:44:44.440Z,24.13
2017-11-07T18:47:13.296Z,27.90
2017-11-07T18:49:42.143Z,24.93
2017-11-07T18:52:10.985Z,25.97
2017-11-07T18:54:39.823Z,25.07
2017-11-07T18:57:08.682Z,24.33
2017-11-07T18:59:37.512Z,26.93
2017-11-07T19:02:06.343Z,26.43
2017-11-07T19:04:35.201Z,26.67
2017-11-07T19:07:04.039Z,28.93
2017-11-07T19:09:32.875Z,27.47
2017-11-07T19:12:01.723Z,27.60
2017-11-07T19:14:30.669Z,27.23
2017-11-07T19:16:59.513Z,24.33
2017-11-07T19:19:28.387Z,25.87
2017-11-07T19:21:57.335Z,26.60
2017-11-07T19:27:01.611Z,28.45
2017-11-07T19:29:30.460Z,37.90
2017-11-07T19:31:59.362Z,26.23
2017-11-07T19:34:28.418Z,26.70
2017-11-07T19:36:57.254Z,26.80
2017-11-07T19:39:26.098Z,26.37
2017-11-07T19:41:55.322Z,27.53
2017-11-07T19:44:24.966Z,27.00
2017-11-07T19:46:54.554Z,28.70
2017-11-07T19:49:24.151Z,43.73
2017-11-07T19:51:53.949Z,27.77
2017-11-07T19:54:23.835Z,29.30
2017-11-07T19:56:53.568Z,30.17
2017-11-07T19:59:22.403Z,30.43
2017-11-07T20:01:51.272Z,32.30
2017-11-07T20:04:20.167Z,28.13
2017-11-07T20:06:49.015Z,28.23
2017-11-07T20:09:17.851Z,30.20
2017-11-07T20:11:46.710Z,30.17
2017-11-07T20:14:15.553Z,30.77
2017-11-07T20:16:44.390Z,30.60
2017-11-07T20:19:13.245Z,30.53
2017-11-07T20:21:42.088Z,30.33
2017-11-07T20:24:10.922Z,30.97
2017-11-07T20:26:39.807Z,31.10
2017-11-07T20:29:08.711Z,32.83
2017-11-07T20:31:37.562Z,32.53
2017-11-07T20:34:06.446Z,36.10
2017-11-07T20:36:35.280Z,34.03
2017-11-07T20:39:04.107Z,35.67
2017-11-07T20:41:32.963Z,35.50
2017-11-07T20:44:01.806Z,36.65
2017-11-07T20:46:30.734Z,37.60
2017-11-07T20:48:59.589Z,34.63
2017-11-07T20:51:28.424Z,35.70
2017-11-07T20:53:57.259Z,35.80
2017-11-07T20:56:26.417Z,38.17
2017-11-07T20:58:55.989Z,33.87
2017-11-07T21:01:25.575Z,32.80
2017-11-07T21:03:55.167Z,42.33
2017-11-07T21:06:24.771Z,34.93
2017-11-07T21:08:53.643Z,33.23
2017-11-07T21:11:22.599Z,33.93
2017-11-07T21:13:51.433Z,43.90
2017-11-07T21:16:20.271Z,43.00
2017-11-07T21:18:51.995Z,36.90
2017-11-07T21:21:20.823Z,38.20
2017-11-07T21:23:49.656Z,37.42
2017-11-07T21:26:18.491Z,37.03
2017-11-07T21:28:47.342Z,34.87
2017-11-07T21:31:16.266Z,36.67
2017-11-07T21:33:45.103Z,34.50
2017-11-07T21:36:14.004Z,33.17
2017-11-07T21:38:42.938Z,35.37
2017-11-07T21:41:11.789Z,36.03
2017-11-07T21:43:40.681Z,37.10
2017-11-07T21:46:09.554Z,34.37
2017-11-07T21:48:38.412Z,34.70
2017-11-07T21:51:07.247Z,31.70
2017-11-07T21:53:36.074Z,34.27
2017-11-07T21:56:04.943Z,37.10
2017-11-07T21:58:33.778Z,35.97
2017-11-07T22:01:02.619Z,36.17
2017-11-07T22:03:31.539Z,33.43
2017-11-07T22:06:00.377Z,31.33
2017-11-07T22:08:29.209Z,34.53
2017-11-07T22:10:58.055Z,32.37
2017-11-07T22:13:27.627Z,31.73
2017-11-07T22:15:57.213Z,29.80
2017-11-07T22:18:26.863Z,27.60
2017-11-07T22:20:56.560Z,29.37
2017-11-07T22:23:26.142Z,28.87
2017-11-07T22:25:55.021Z,27.47
2017-11-07T22:28:23.878Z,29.70
2017-11-07T22:30:52.706Z,28.60
2017-11-07T22:33:21.552Z,30.30
2017-11-07T22:35:50.422Z,29.80
2017-11-07T22:38:19.277Z,29.33
2017-11-07T22:40:48.138Z,31.40
2017-11-07T22:43:17.078Z,31.57
2017-11-07T22:45:45.918Z,32.10
2017-11-07T22:48:14.820Z,32.67
2017-11-07T22:50:43.682Z,30.50
2017-11-07T22:53:12.526Z,30.27
2017-11-07T22:55:41.376Z,29.90
2017-11-07T22:58:10.389Z,27.77
2017-11-07T23:00:39.316Z,30.20
2017-11-07T23:03:08.169Z,28.60
2017-11-07T23:05:37.000Z,29.90
2017-11-07T23:08:05.845Z,32.40
2017-11-07T23:10:34.775Z,32.27
2017-11-07T23:13:05.512Z,31.90
2017-11-07T23:15:34.399Z,31.53
2017-11-07T23:18:03.228Z,28.93
2017-11-07T23:20:32.289Z,29.70
2017-11-07T23:23:01.127Z,27.00
2017-11-07T23:25:29.991Z,28.27
2017-11-07T23:27:58.976Z,25.90
2017-11-07T23:30:28.566Z,27.27
2017-11-07T23:32:58.139Z,24.80
2017-11-07T23:35:27.770Z,25.80
2017-11-07T23:37:57.347Z,26.77
2017-11-07T23:40:26.274Z,27.37
2017-11-07T23:42:55.166Z,28.57
2017-11-07T23:45:24.013Z,27.87
2017-11-07T23:47:52.838Z,26.40
2017-11-07T23:50:24.696Z,27.60
2017-11-07T23:52:53.534Z,25.40
2017-11-07T23:55:22.369Z,26.40
2017-11-07T23:57:51.288Z,26.80
